Ula — CRA6220 — position and weather

sailwx.info

Track history (hours):
 
Tides and Currents Weather Stations Pressure Air Temp Water Temp Dewpoint Dewpoint Depression Visibility Wind Speed Wind Dir Waves Ship Positions

Ula

Last reported at 2015-Aug-15 15:19 UTC. Time now 2015-Aug-31 15:20 UTC.
Position N 37°06' W 008°40'.
Warning: this ship's position is 16 days out of date.

Length 13 m.

Type: Sailing vessel. MMSI: 263945960.

Date/timePositionNaut miles runAvg speedWind from/ knotsBaromVisibWave heightAir tempDewpointWater temp
2015-Aug-15 15:19N 37°06' W 008°40'5 5.5
2015-Aug-15 14:28N 37°07' W 008°35'6 5.7
2015-Aug-15 13:27N 37°05' W 008°28'5 6.0
2015-Aug-15 12:33N 37°04' W 008°21'7 7.0
2015-Aug-15 11:33N 37°02' W 008°12'  
2015-Aug-11 13:19N 36°59' W 008°11'6 7.7
2015-Aug-11 12:31N 37°02' W 008°19'8 7.4
2015-Aug-11 11:29N 37°04' W 008°27'7 7.3
2015-Aug-11 10:29N 37°05' W 008°36'  
2015-Aug-05 17:29N 37°07' W 008°37'  
Track history (hours):
 
Tides and Currents Weather Stations Pressure Air Temp Water Temp Dewpoint Dewpoint Depression Visibility Wind Speed Wind Dir Waves Ship Positions

Ula

Last reported at 2015-Aug-15 15:19 UTC. Time now 2015-Aug-31 15:20 UTC.
Position N 37°06' W 008°40'.
Warning: this ship's position is 16 days out of date.

Length 13 m.

Type: Sailing vessel. MMSI: 263945960.

Date/timePositionNaut miles runAvg speedWind from/ knotsBaromVisibWave heightAir tempDewpointWater temp
2015-Aug-15 15:19N 37°06' W 008°40'5 5.5
2015-Aug-15 14:28N 37°07' W 008°35'6 5.7
2015-Aug-15 13:27N 37°05' W 008°28'5 6.0
2015-Aug-15 12:33N 37°04' W 008°21'7 7.0
2015-Aug-15 11:33N 37°02' W 008°12'  
2015-Aug-11 13:19N 36°59' W 008°11'6 7.7
2015-Aug-11 12:31N 37°02' W 008°19'8 7.4
2015-Aug-11 11:29N 37°04' W 008°27'7 7.3
2015-Aug-11 10:29N 37°05' W 008°36'  
2015-Aug-05 17:29N 37°07' W 008°37'  

Dump ship's entire track history